sensor_id;sensor_type;location;lat;lon;timestamp;P1;durP1;ratioP1;P2;durP2;ratioP2
57856;SDS011;43683;48.650;9.290;2024-03-02T00:02:49;23.58;;;13.80;;
57856;SDS011;43683;48.650;9.290;2024-03-02T00:05:15;23.27;;;13.95;;
57856;SDS011;43683;48.650;9.290;2024-03-02T00:07:45;22.58;;;14.38;;
57856;SDS011;43683;48.650;9.290;2024-03-02T00:10:18;23.30;;;15.38;;
57856;SDS011;43683;48.650;9.290;2024-03-02T00:12:45;25.55;;;14.93;;
57856;SDS011;43683;48.650;9.290;2024-03-02T00:15:25;28.98;;;16.85;;
57856;SDS011;43683;48.650;9.290;2024-03-02T00:17:55;28.85;;;14.75;;
57856;SDS011;43683;48.650;9.290;2024-03-02T00:20:21;27.20;;;15.35;;
57856;SDS011;43683;48.650;9.290;2024-03-02T00:22:48;26.52;;;15.45;;
57856;SDS011;43683;48.650;9.290;2024-03-02T00:25:14;25.02;;;15.40;;
57856;SDS011;43683;48.650;9.290;2024-03-02T00:27:39;24.73;;;14.73;;
57856;SDS011;43683;48.650;9.290;2024-03-02T00:32:58;24.38;;;14.73;;
57856;SDS011;43683;48.650;9.290;2024-03-02T00:35:24;25.33;;;14.38;;
57856;SDS011;43683;48.650;9.290;2024-03-02T00:37:49;27.15;;;15.95;;
57856;SDS011;43683;48.650;9.290;2024-03-02T00:40:16;27.50;;;15.98;;
57856;SDS011;43683;48.650;9.290;2024-03-02T00:42:42;25.80;;;15.25;;
57856;SDS011;43683;48.650;9.290;2024-03-02T00:45:07;24.90;;;14.82;;
57856;SDS011;43683;48.650;9.290;2024-03-02T00:47:37;25.17;;;13.88;;
57856;SDS011;43683;48.650;9.290;2024-03-02T00:50:04;23.23;;;13.55;;
57856;SDS011;43683;48.650;9.290;2024-03-02T00:52:31;23.63;;;15.15;;
57856;SDS011;43683;48.650;9.290;2024-03-02T00:54:58;22.45;;;13.07;;
57856;SDS011;43683;48.650;9.290;2024-03-02T00:57:24;23.85;;;13.30;;
57856;SDS011;43683;48.650;9.290;2024-03-02T00:59:51;21.27;;;13.23;;
57856;SDS011;43683;48.650;9.290;2024-03-02T01:02:16;24.52;;;13.77;;
57856;SDS011;43683;48.650;9.290;2024-03-02T01:04:45;21.60;;;12.60;;
57856;SDS011;43683;48.650;9.290;2024-03-02T01:07:10;23.13;;;11.95;;
57856;SDS011;43683;48.650;9.290;2024-03-02T01:09:36;24.52;;;13.95;;
57856;SDS011;43683;48.650;9.290;2024-03-02T01:12:01;22.88;;;13.38;;
57856;SDS011;43683;48.650;9.290;2024-03-02T01:14:27;27.02;;;15.32;;
57856;SDS011;43683;48.650;9.290;2024-03-02T01:16:53;20.95;;;13.35;;
57856;SDS011;43683;48.650;9.290;2024-03-02T01:19:18;25.50;;;14.32;;
57856;SDS011;43683;48.650;9.290;2024-03-02T01:21:44;24.90;;;14.85;;
57856;SDS011;43683;48.650;9.290;2024-03-02T01:24:09;22.02;;;13.60;;
57856;SDS011;43683;48.650;9.290;2024-03-02T01:26:35;24.85;;;14.25;;
57856;SDS011;43683;48.650;9.290;2024-03-02T01:29:00;25.35;;;14.23;;
57856;SDS011;43683;48.650;9.290;2024-03-02T01:31:26;24.80;;;15.30;;
57856;SDS011;43683;48.650;9.290;2024-03-02T01:33:51;22.65;;;13.57;;
57856;SDS011;43683;48.650;9.290;2024-03-02T01:36:17;26.23;;;14.70;;
57856;SDS011;43683;48.650;9.290;2024-03-02T01:38:42;21.42;;;13.27;;
57856;SDS011;43683;48.650;9.290;2024-03-02T01:41:08;25.40;;;14.27;;
57856;SDS011;43683;48.650;9.290;2024-03-02T01:43:33;22.17;;;12.68;;
57856;SDS011;43683;48.650;9.290;2024-03-02T01:45:59;23.70;;;13.85;;
57856;SDS011;43683;48.650;9.290;2024-03-02T01:48:24;24.58;;;14.75;;
57856;SDS011;43683;48.650;9.290;2024-03-02T01:50:50;29.10;;;14.07;;
57856;SDS011;43683;48.650;9.290;2024-03-02T01:53:15;23.77;;;14.32;;
57856;SDS011;43683;48.650;9.290;2024-03-02T01:55:41;24.25;;;13.65;;
57856;SDS011;43683;48.650;9.290;2024-03-02T01:58:07;23.65;;;14.35;;
57856;SDS011;43683;48.650;9.290;2024-03-02T02:00:32;22.52;;;13.40;;
57856;SDS011;43683;48.650;9.290;2024-03-02T02:02:58;24.00;;;12.57;;
57856;SDS011;43683;48.650;9.290;2024-03-02T02:05:23;20.48;;;13.13;;
57856;SDS011;43683;48.650;9.290;2024-03-02T02:07:49;24.27;;;12.65;;
57856;SDS011;43683;48.650;9.290;2024-03-02T02:10:15;24.00;;;12.55;;
57856;SDS011;43683;48.650;9.290;2024-03-02T02:12:40;20.20;;;12.18;;
57856;SDS011;43683;48.650;9.290;2024-03-02T02:15:25;22.20;;;12.25;;
57856;SDS011;43683;48.650;9.290;2024-03-02T02:18:01;22.67;;;12.60;;
57856;SDS011;43683;48.650;9.290;2024-03-02T02:20:27;25.23;;;13.75;;
57856;SDS011;43683;48.650;9.290;2024-03-02T02:22:56;21.58;;;12.57;;
57856;SDS011;43683;48.650;9.290;2024-03-02T02:25:22;21.52;;;12.38;;
57856;SDS011;43683;48.650;9.290;2024-03-02T02:27:48;21.55;;;12.52;;
57856;SDS011;43683;48.650;9.290;2024-03-02T02:30:17;22.95;;;14.13;;
57856;SDS011;43683;48.650;9.290;2024-03-02T02:32:44;23.67;;;12.85;;
57856;SDS011;43683;48.650;9.290;2024-03-02T02:35:10;21.13;;;13.32;;
57856;SDS011;43683;48.650;9.290;2024-03-02T02:37:35;25.17;;;14.18;;
57856;SDS011;43683;48.650;9.290;2024-03-02T02:40:01;24.27;;;13.68;;
57856;SDS011;43683;48.650;9.290;2024-03-02T02:42:29;23.17;;;12.45;;
57856;SDS011;43683;48.650;9.290;2024-03-02T02:44:55;21.77;;;13.98;;
57856;SDS011;43683;48.650;9.290;2024-03-02T02:47:21;22.80;;;13.25;;
57856;SDS011;43683;48.650;9.290;2024-03-02T02:49:46;23.00;;;13.40;;
57856;SDS011;43683;48.650;9.290;2024-03-02T02:52:12;23.38;;;15.27;;
57856;SDS011;43683;48.650;9.290;2024-03-02T02:54:37;26.83;;;14.32;;
57856;SDS011;43683;48.650;9.290;2024-03-02T02:57:03;31.27;;;15.35;;
57856;SDS011;43683;48.650;9.290;2024-03-02T02:59:29;25.70;;;15.98;;
57856;SDS011;43683;48.650;9.290;2024-03-02T03:01:54;28.00;;;15.50;;
57856;SDS011;43683;48.650;9.290;2024-03-02T03:04:19;28.48;;;15.77;;
57856;SDS011;43683;48.650;9.290;2024-03-02T03:06:45;30.88;;;16.45;;
57856;SDS011;43683;48.650;9.290;2024-03-02T03:09:11;32.50;;;16.60;;
57856;SDS011;43683;48.650;9.290;2024-03-02T03:11:36;27.52;;;17.02;;
57856;SDS011;43683;48.650;9.290;2024-03-02T03:14:02;26.67;;;14.68;;
57856;SDS011;43683;48.650;9.290;2024-03-02T03:16:28;25.70;;;14.75;;
57856;SDS011;43683;48.650;9.290;2024-03-02T03:18:53;28.17;;;13.77;;
57856;SDS011;43683;48.650;9.290;2024-03-02T03:21:19;22.67;;;12.88;;
57856;SDS011;43683;48.650;9.290;2024-03-02T03:23:44;25.75;;;13.90;;
57856;SDS011;43683;48.650;9.290;2024-03-02T03:26:10;24.48;;;13.10;;
57856;SDS011;43683;48.650;9.290;2024-03-02T03:28:35;24.85;;;13.18;;
57856;SDS011;43683;48.650;9.290;2024-03-02T03:31:01;22.02;;;12.02;;
57856;SDS011;43683;48.650;9.290;2024-03-02T03:33:27;22.60;;;13.57;;
57856;SDS011;43683;48.650;9.290;2024-03-02T03:35:52;23.83;;;12.55;;
57856;SDS011;43683;48.650;9.290;2024-03-02T03:38:18;19.70;;;12.18;;
57856;SDS011;43683;48.650;9.290;2024-03-02T03:40:44;21.35;;;13.15;;
57856;SDS011;43683;48.650;9.290;2024-03-02T03:43:10;26.10;;;13.52;;
57856;SDS011;43683;48.650;9.290;2024-03-02T03:45:35;24.33;;;14.07;;
57856;SDS011;43683;48.650;9.290;2024-03-02T03:48:02;28.70;;;14.38;;
57856;SDS011;43683;48.650;9.290;2024-03-02T03:50:28;25.60;;;14.25;;
57856;SDS011;43683;48.650;9.290;2024-03-02T03:52:53;24.65;;;13.70;;
57856;SDS011;43683;48.650;9.290;2024-03-02T03:55:18;25.73;;;13.82;;
57856;SDS011;43683;48.650;9.290;2024-03-02T03:57:44;25.27;;;14.30;;
57856;SDS011;43683;48.650;9.290;2024-03-02T04:00:10;25.92;;;13.75;;
57856;SDS011;43683;48.650;9.290;2024-03-02T04:02:37;21.80;;;12.80;;
57856;SDS011;43683;48.650;9.290;2024-03-02T04:05:02;23.52;;;14.23;;
57856;SDS011;43683;48.650;9.290;2024-03-02T04:07:30;30.25;;;16.20;;
57856;SDS011;43683;48.650;9.290;2024-03-02T04:09:55;27.95;;;15.82;;
57856;SDS011;43683;48.650;9.290;2024-03-02T04:12:21;26.45;;;15.07;;
57856;SDS011;43683;48.650;9.290;2024-03-02T04:14:47;24.80;;;14.18;;
57856;SDS011;43683;48.650;9.290;2024-03-02T04:17:12;29.15;;;15.60;;
57856;SDS011;43683;48.650;9.290;2024-03-02T04:19:38;30.17;;;15.63;;
57856;SDS011;43683;48.650;9.290;2024-03-02T04:22:03;27.40;;;14.90;;
57856;SDS011;43683;48.650;9.290;2024-03-02T04:24:29;25.13;;;12.77;;
57856;SDS011;43683;48.650;9.290;2024-03-02T04:26:55;25.17;;;14.20;;
57856;SDS011;43683;48.650;9.290;2024-03-02T04:29:20;26.75;;;14.93;;
57856;SDS011;43683;48.650;9.290;2024-03-02T04:31:46;26.95;;;14.98;;
57856;SDS011;43683;48.650;9.290;2024-03-02T04:34:11;21.95;;;13.38;;
57856;SDS011;43683;48.650;9.290;2024-03-02T04:36:37;23.17;;;13.52;;
57856;SDS011;43683;48.650;9.290;2024-03-02T04:39:02;24.17;;;13.57;;
57856;SDS011;43683;48.650;9.290;2024-03-02T04:41:28;24.00;;;13.95;;
57856;SDS011;43683;48.650;9.290;2024-03-02T04:43:53;24.17;;;14.30;;
57856;SDS011;43683;48.650;9.290;2024-03-02T04:46:19;24.17;;;14.05;;
57856;SDS011;43683;48.650;9.290;2024-03-02T04:48:44;24.20;;;13.65;;
57856;SDS011;43683;48.650;9.290;2024-03-02T04:51:10;22.27;;;12.48;;
57856;SDS011;43683;48.650;9.290;2024-03-02T04:53:36;22.45;;;12.40;;
57856;SDS011;43683;48.650;9.290;2024-03-02T04:56:01;24.02;;;13.40;;
57856;SDS011;43683;48.650;9.290;2024-03-02T04:58:56;21.85;;;12.40;;
57856;SDS011;43683;48.650;9.290;2024-03-02T05:01:21;24.02;;;14.05;;
57856;SDS011;43683;48.650;9.290;2024-03-02T05:03:47;25.85;;;14.65;;
57856;SDS011;43683;48.650;9.290;2024-03-02T05:06:12;26.33;;;14.60;;
57856;SDS011;43683;48.650;9.290;2024-03-02T05:08:38;27.77;;;15.60;;
57856;SDS011;43683;48.650;9.290;2024-03-02T05:11:03;27.52;;;14.18;;
57856;SDS011;43683;48.650;9.290;2024-03-02T05:13:47;24.67;;;14.55;;
57856;SDS011;43683;48.650;9.290;2024-03-02T05:16:13;26.08;;;15.20;;
57856;SDS011;43683;48.650;9.290;2024-03-02T05:18:39;26.08;;;15.40;;
57856;SDS011;43683;48.650;9.290;2024-03-02T05:21:04;26.20;;;14.45;;
57856;SDS011;43683;48.650;9.290;2024-03-02T05:23:30;23.73;;;13.93;;
57856;SDS011;43683;48.650;9.290;2024-03-02T05:25:56;26.15;;;14.57;;
57856;SDS011;43683;48.650;9.290;2024-03-02T05:28:21;25.75;;;15.00;;
57856;SDS011;43683;48.650;9.290;2024-03-02T05:30:46;23.38;;;14.80;;
57856;SDS011;43683;48.650;9.290;2024-03-02T05:33:12;25.13;;;14.00;;
57856;SDS011;43683;48.650;9.290;2024-03-02T05:35:38;23.13;;;13.40;;
57856;SDS011;43683;48.650;9.290;2024-03-02T05:38:03;21.77;;;13.88;;
57856;SDS011;43683;48.650;9.290;2024-03-02T05:40:29;28.23;;;15.27;;
57856;SDS011;43683;48.650;9.290;2024-03-02T05:42:54;29.23;;;15.48;;
57856;SDS011;43683;48.650;9.290;2024-03-02T05:45:19;28.17;;;15.25;;
57856;SDS011;43683;48.650;9.290;2024-03-02T05:47:45;22.58;;;13.65;;
57856;SDS011;43683;48.650;9.290;2024-03-02T05:50:10;25.60;;;14.88;;
57856;SDS011;43683;48.650;9.290;2024-03-02T05:52:36;25.75;;;14.80;;
57856;SDS011;43683;48.650;9.290;2024-03-02T05:55:02;25.35;;;15.75;;
57856;SDS011;43683;48.650;9.290;2024-03-02T05:57:27;27.17;;;14.13;;
57856;SDS011;43683;48.650;9.290;2024-03-02T06:00:08;25.40;;;14.43;;
57856;SDS011;43683;48.650;9.290;2024-03-02T06:02:34;24.52;;;15.65;;
57856;SDS011;43683;48.650;9.290;2024-03-02T06:05:02;29.40;;;14.77;;
57856;SDS011;43683;48.650;9.290;2024-03-02T06:07:29;28.35;;;15.07;;
57856;SDS011;43683;48.650;9.290;2024-03-02T06:09:54;30.45;;;15.38;;
57856;SDS011;43683;48.650;9.290;2024-03-02T06:12:20;27.58;;;15.25;;
57856;SDS011;43683;48.650;9.290;2024-03-02T06:14:45;23.55;;;13.68;;
57856;SDS011;43683;48.650;9.290;2024-03-02T06:17:11;24.20;;;13.95;;
57856;SDS011;43683;48.650;9.290;2024-03-02T06:19:37;27.75;;;15.07;;
57856;SDS011;43683;48.650;9.290;2024-03-02T06:22:02;26.60;;;15.13;;
57856;SDS011;43683;48.650;9.290;2024-03-02T06:24:28;27.98;;;18.17;;
57856;SDS011;43683;48.650;9.290;2024-03-02T06:26:54;27.77;;;16.40;;
57856;SDS011;43683;48.650;9.290;2024-03-02T06:29:19;27.75;;;16.13;;
57856;SDS011;43683;48.650;9.290;2024-03-02T06:31:46;23.23;;;16.13;;
57856;SDS011;43683;48.650;9.290;2024-03-02T06:34:12;29.67;;;15.73;;
57856;SDS011;43683;48.650;9.290;2024-03-02T06:36:38;26.10;;;15.18;;
57856;SDS011;43683;48.650;9.290;2024-03-02T06:39:05;31.92;;;18.25;;
57856;SDS011;43683;48.650;9.290;2024-03-02T06:41:30;28.38;;;16.70;;
57856;SDS011;43683;48.650;9.290;2024-03-02T06:43:56;29.88;;;16.48;;
57856;SDS011;43683;48.650;9.290;2024-03-02T06:46:24;31.00;;;17.45;;
57856;SDS011;43683;48.650;9.290;2024-03-02T06:48:50;25.75;;;16.42;;
57856;SDS011;43683;48.650;9.290;2024-03-02T06:51:15;32.35;;;17.15;;
57856;SDS011;43683;48.650;9.290;2024-03-02T06:53:41;27.60;;;16.27;;
57856;SDS011;43683;48.650;9.290;2024-03-02T06:56:07;33.17;;;17.60;;
57856;SDS011;43683;48.650;9.290;2024-03-02T06:58:34;27.67;;;16.98;;
57856;SDS011;43683;48.650;9.290;2024-03-02T07:00:59;33.72;;;16.95;;
57856;SDS011;43683;48.650;9.290;2024-03-02T07:03:28;34.42;;;18.30;;
57856;SDS011;43683;48.650;9.290;2024-03-02T07:05:53;33.30;;;17.20;;
57856;SDS011;43683;48.650;9.290;2024-03-02T07:08:19;29.20;;;16.08;;
57856;SDS011;43683;48.650;9.290;2024-03-02T07:10:44;25.27;;;14.48;;
57856;SDS011;43683;48.650;9.290;2024-03-02T07:13:10;25.30;;;15.98;;
57856;SDS011;43683;48.650;9.290;2024-03-02T07:15:35;29.67;;;16.38;;
57856;SDS011;43683;48.650;9.290;2024-03-02T07:18:19;29.13;;;16.05;;
57856;SDS011;43683;48.650;9.290;2024-03-02T07:20:45;25.60;;;15.25;;
57856;SDS011;43683;48.650;9.290;2024-03-02T07:23:10;27.85;;;15.88;;
57856;SDS011;43683;48.650;9.290;2024-03-02T07:25:36;32.38;;;16.10;;
57856;SDS011;43683;48.650;9.290;2024-03-02T07:28:01;29.48;;;15.95;;
57856;SDS011;43683;48.650;9.290;2024-03-02T07:30:27;32.63;;;16.58;;
57856;SDS011;43683;48.650;9.290;2024-03-02T07:32:53;28.73;;;15.80;;
57856;SDS011;43683;48.650;9.290;2024-03-02T07:35:18;36.15;;;17.63;;
57856;SDS011;43683;48.650;9.290;2024-03-02T07:37:44;28.70;;;15.02;;
57856;SDS011;43683;48.650;9.290;2024-03-02T07:40:10;33.72;;;16.58;;
57856;SDS011;43683;48.650;9.290;2024-03-02T07:42:36;28.20;;;14.25;;
57856;SDS011;43683;48.650;9.290;2024-03-02T07:45:05;25.60;;;13.43;;
57856;SDS011;43683;48.650;9.290;2024-03-02T07:47:31;21.35;;;11.18;;
57856;SDS011;43683;48.650;9.290;2024-03-02T07:50:00;19.85;;;11.55;;
57856;SDS011;43683;48.650;9.290;2024-03-02T07:52:25;19.67;;;11.07;;
57856;SDS011;43683;48.650;9.290;2024-03-02T07:54:51;20.15;;;9.57;;
57856;SDS011;43683;48.650;9.290;2024-03-02T07:57:16;17.17;;;9.90;;
57856;SDS011;43683;48.650;9.290;2024-03-02T07:59:42;19.25;;;9.45;;
57856;SDS011;43683;48.650;9.290;2024-03-02T08:02:08;12.45;;;8.30;;
57856;SDS011;43683;48.650;9.290;2024-03-02T08:04:33;13.95;;;8.48;;
57856;SDS011;43683;48.650;9.290;2024-03-02T08:06:59;18.50;;;9.45;;
57856;SDS011;43683;48.650;9.290;2024-03-02T08:09:24;17.05;;;9.15;;
57856;SDS011;43683;48.650;9.290;2024-03-02T08:11:50;23.10;;;9.32;;
57856;SDS011;43683;48.650;9.290;2024-03-02T08:14:16;15.98;;;7.97;;
57856;SDS011;43683;48.650;9.290;2024-03-02T08:16:42;16.83;;;7.97;;
57856;SDS011;43683;48.650;9.290;2024-03-02T08:19:07;12.23;;;6.43;;
57856;SDS011;43683;48.650;9.290;2024-03-02T08:21:34;14.52;;;7.68;;
57856;SDS011;43683;48.650;9.290;2024-03-02T08:24:00;12.65;;;7.88;;
57856;SDS011;43683;48.650;9.290;2024-03-02T08:26:26;12.13;;;7.30;;
57856;SDS011;43683;48.650;9.290;2024-03-02T08:28:54;25.73;;;9.55;;
57856;SDS011;43683;48.650;9.290;2024-03-02T08:31:20;26.98;;;9.63;;
57856;SDS011;43683;48.650;9.290;2024-03-02T08:33:45;11.35;;;7.10;;
57856;SDS011;43683;48.650;9.290;2024-03-02T08:36:11;13.25;;;8.18;;
57856;SDS011;43683;48.650;9.290;2024-03-02T08:38:37;9.80;;;5.75;;
57856;SDS011;43683;48.650;9.290;2024-03-02T08:41:02;18.20;;;7.13;;
57856;SDS011;43683;48.650;9.290;2024-03-02T08:43:28;10.55;;;6.28;;
57856;SDS011;43683;48.650;9.290;2024-03-02T08:45:54;14.50;;;7.28;;
57856;SDS011;43683;48.650;9.290;2024-03-02T08:48:20;19.67;;;7.72;;
57856;SDS011;43683;48.650;9.290;2024-03-02T08:50:46;10.65;;;5.35;;
57856;SDS011;43683;48.650;9.290;2024-03-02T08:53:11;9.70;;;6.22;;
57856;SDS011;43683;48.650;9.290;2024-03-02T08:55:37;11.15;;;5.95;;
57856;SDS011;43683;48.650;9.290;2024-03-02T08:58:02;14.60;;;8.20;;
57856;SDS011;43683;48.650;9.290;2024-03-02T09:00:28;12.40;;;7.53;;
57856;SDS011;43683;48.650;9.290;2024-03-02T09:02:54;10.82;;;6.85;;
57856;SDS011;43683;48.650;9.290;2024-03-02T09:05:19;10.43;;;6.10;;
57856;SDS011;43683;48.650;9.290;2024-03-02T09:07:45;9.40;;;6.07;;
57856;SDS011;43683;48.650;9.290;2024-03-02T09:10:10;10.07;;;5.78;;
57856;SDS011;43683;48.650;9.290;2024-03-02T09:12:36;9.57;;;5.63;;
57856;SDS011;43683;48.650;9.290;2024-03-02T09:15:03;8.50;;;4.90;;
57856;SDS011;43683;48.650;9.290;2024-03-02T09:17:29;8.50;;;5.25;;
57856;SDS011;43683;48.650;9.290;2024-03-02T09:19:55;7.13;;;4.55;;
57856;SDS011;43683;48.650;9.290;2024-03-02T09:22:20;18.85;;;6.68;;
57856;SDS011;43683;48.650;9.290;2024-03-02T09:24:46;8.25;;;4.95;;
57856;SDS011;43683;48.650;9.290;2024-03-02T09:27:11;8.70;;;4.78;;
57856;SDS011;43683;48.650;9.290;2024-03-02T09:29:37;11.13;;;4.57;;
57856;SDS011;43683;48.650;9.290;2024-03-02T09:32:03;8.15;;;4.50;;
57856;SDS011;43683;48.650;9.290;2024-03-02T09:34:33;7.63;;;4.75;;
57856;SDS011;43683;48.650;9.290;2024-03-02T09:36:59;8.52;;;4.68;;
57856;SDS011;43683;48.650;9.290;2024-03-02T09:39:25;7.72;;;4.78;;
57856;SDS011;43683;48.650;9.290;2024-03-02T09:41:50;8.93;;;4.53;;
57856;SDS011;43683;48.650;9.290;2024-03-02T09:44:16;7.50;;;4.60;;
57856;SDS011;43683;48.650;9.290;2024-03-02T09:46:43;6.65;;;4.43;;
57856;SDS011;43683;48.650;9.290;2024-03-02T09:49:13;9.63;;;4.97;;
57856;SDS011;43683;48.650;9.290;2024-03-02T09:51:40;8.18;;;4.47;;
57856;SDS011;43683;48.650;9.290;2024-03-02T09:54:11;7.22;;;4.13;;
57856;SDS011;43683;48.650;9.290;2024-03-02T09:56:37;8.30;;;4.30;;
57856;SDS011;43683;48.650;9.290;2024-03-02T09:59:03;7.93;;;4.28;;
57856;SDS011;43683;48.650;9.290;2024-03-02T10:01:30;6.03;;;3.73;;
57856;SDS011;43683;48.650;9.290;2024-03-02T10:03:58;7.40;;;3.72;;
57856;SDS011;43683;48.650;9.290;2024-03-02T10:06:25;7.03;;;3.60;;
57856;SDS011;43683;48.650;9.290;2024-03-02T10:08:53;6.40;;;3.78;;
57856;SDS011;43683;48.650;9.290;2024-03-02T10:13:54;8.05;;;3.88;;
57856;SDS011;43683;48.650;9.290;2024-03-02T10:16:34;14.18;;;4.38;;
57856;SDS011;43683;48.650;9.290;2024-03-02T10:21:57;4.72;;;3.00;;
57856;SDS011;43683;48.650;9.290;2024-03-02T10:24:23;6.40;;;3.38;;
57856;SDS011;43683;48.650;9.290;2024-03-02T10:26:51;5.40;;;3.05;;
57856;SDS011;43683;48.650;9.290;2024-03-02T10:29:17;5.68;;;3.47;;
57856;SDS011;43683;48.650;9.290;2024-03-02T10:31:43;6.30;;;2.83;;
57856;SDS011;43683;48.650;9.290;2024-03-02T10:34:11;8.85;;;3.55;;
57856;SDS011;43683;48.650;9.290;2024-03-02T10:36:41;9.70;;;4.22;;
57856;SDS011;43683;48.650;9.290;2024-03-02T10:39:08;6.97;;;3.40;;
57856;SDS011;43683;48.650;9.290;2024-03-02T10:41:37;5.32;;;3.03;;
57856;SDS011;43683;48.650;9.290;2024-03-02T10:44:08;5.13;;;3.20;;
57856;SDS011;43683;48.650;9.290;2024-03-02T10:46:35;5.15;;;3.40;;
57856;SDS011;43683;48.650;9.290;2024-03-02T10:49:03;6.38;;;2.85;;
57856;SDS011;43683;48.650;9.290;2024-03-02T10:51:30;3.25;;;2.45;;
57856;SDS011;43683;48.650;9.290;2024-03-02T10:53:58;3.28;;;2.17;;
57856;SDS011;43683;48.650;9.290;2024-03-02T10:59:03;4.13;;;2.55;;
57856;SDS011;43683;48.650;9.290;2024-03-02T11:01:29;8.45;;;3.22;;
57856;SDS011;43683;48.650;9.290;2024-03-02T11:03:57;6.78;;;3.30;;
57856;SDS011;43683;48.650;9.290;2024-03-02T11:06:24;4.20;;;2.40;;
57856;SDS011;43683;48.650;9.290;2024-03-02T11:08:53;15.63;;;3.78;;
57856;SDS011;43683;48.650;9.290;2024-03-02T11:11:27;4.47;;;2.35;;
57856;SDS011;43683;48.650;9.290;2024-03-02T11:13:55;4.18;;;2.60;;
57856;SDS011;43683;48.650;9.290;2024-03-02T11:16:33;17.30;;;2.80;;
57856;SDS011;43683;48.650;9.290;2024-03-02T11:19:06;6.25;;;2.33;;
57856;SDS011;43683;48.650;9.290;2024-03-02T11:21:36;5.75;;;2.15;;
57856;SDS011;43683;48.650;9.290;2024-03-02T11:26:50;4.35;;;2.20;;
57856;SDS011;43683;48.650;9.290;2024-03-02T11:32:05;2.13;;;1.20;;
57856;SDS011;43683;48.650;9.290;2024-03-02T11:34:32;3.95;;;1.60;;
57856;SDS011;43683;48.650;9.290;2024-03-02T11:37:00;1.15;;;0.93;;
57856;SDS011;43683;48.650;9.290;2024-03-02T11:39:28;1.88;;;1.45;;
57856;SDS011;43683;48.650;9.290;2024-03-02T11:41:57;5.25;;;1.83;;
57856;SDS011;43683;48.650;9.290;2024-03-02T11:44:24;5.32;;;2.13;;
57856;SDS011;43683;48.650;9.290;2024-03-02T11:46:52;4.00;;;2.22;;
57856;SDS011;43683;48.650;9.290;2024-03-02T11:49:36;2.97;;;2.20;;
57856;SDS011;43683;48.650;9.290;2024-03-02T11:52:04;5.03;;;2.55;;
57856;SDS011;43683;48.650;9.290;2024-03-02T11:54:32;5.30;;;2.35;;
57856;SDS011;43683;48.650;9.290;2024-03-02T11:57:00;4.72;;;2.83;;
57856;SDS011;43683;48.650;9.290;2024-03-02T11:59:28;4.07;;;1.80;;
57856;SDS011;43683;48.650;9.290;2024-03-02T12:04:21;2.03;;;1.55;;
57856;SDS011;43683;48.650;9.290;2024-03-02T12:06:48;4.63;;;1.50;;
57856;SDS011;43683;48.650;9.290;2024-03-02T12:09:24;2.88;;;1.50;;
57856;SDS011;43683;48.650;9.290;2024-03-02T12:12:06;2.25;;;1.48;;
57856;SDS011;43683;48.650;9.290;2024-03-02T12:14:33;3.58;;;1.30;;
57856;SDS011;43683;48.650;9.290;2024-03-02T12:17:00;3.38;;;1.40;;
57856;SDS011;43683;48.650;9.290;2024-03-02T12:19:27;1.95;;;1.27;;
57856;SDS011;43683;48.650;9.290;2024-03-02T12:21:54;2.00;;;1.25;;
57856;SDS011;43683;48.650;9.290;2024-03-02T12:24:24;2.10;;;1.50;;
57856;SDS011;43683;48.650;9.290;2024-03-02T12:26:51;2.78;;;1.45;;
57856;SDS011;43683;48.650;9.290;2024-03-02T12:29:18;6.43;;;1.88;;
57856;SDS011;43683;48.650;9.290;2024-03-02T12:31:47;2.53;;;1.40;;
57856;SDS011;43683;48.650;9.290;2024-03-02T12:34:14;1.20;;;1.05;;
57856;SDS011;43683;48.650;9.290;2024-03-02T12:36:41;2.58;;;1.30;;
57856;SDS011;43683;48.650;9.290;2024-03-02T12:39:10;1.98;;;1.20;;
57856;SDS011;43683;48.650;9.290;2024-03-02T12:41:36;3.55;;;1.30;;
57856;SDS011;43683;48.650;9.290;2024-03-02T12:44:02;3.80;;;1.30;;
57856;SDS011;43683;48.650;9.290;2024-03-02T12:46:29;1.20;;;1.00;;
57856;SDS011;43683;48.650;9.290;2024-03-02T12:48:55;0.87;;;0.87;;
57856;SDS011;43683;48.650;9.290;2024-03-02T12:51:21;2.10;;;0.95;;
57856;SDS011;43683;48.650;9.290;2024-03-02T12:53:54;4.25;;;1.40;;
57856;SDS011;43683;48.650;9.290;2024-03-02T12:56:21;1.40;;;0.90;;
57856;SDS011;43683;48.650;9.290;2024-03-02T12:58:47;2.30;;;1.10;;
57856;SDS011;43683;48.650;9.290;2024-03-02T13:01:14;1.25;;;1.05;;
57856;SDS011;43683;48.650;9.290;2024-03-02T13:03:40;1.33;;;0.88;;
57856;SDS011;43683;48.650;9.290;2024-03-02T13:06:06;4.18;;;1.20;;
57856;SDS011;43683;48.650;9.290;2024-03-02T13:08:33;2.17;;;1.20;;
57856;SDS011;43683;48.650;9.290;2024-03-02T13:10:59;1.85;;;1.02;;
57856;SDS011;43683;48.650;9.290;2024-03-02T13:13:24;1.58;;;0.90;;
57856;SDS011;43683;48.650;9.290;2024-03-02T13:15:50;2.40;;;0.93;;
57856;SDS011;43683;48.650;9.290;2024-03-02T13:18:20;1.15;;;0.90;;
57856;SDS011;43683;48.650;9.290;2024-03-02T13:20:47;2.30;;;1.10;;
57856;SDS011;43683;48.650;9.290;2024-03-02T13:23:12;1.20;;;1.10;;
57856;SDS011;43683;48.650;9.290;2024-03-02T13:25:39;1.10;;;1.00;;
57856;SDS011;43683;48.650;9.290;2024-03-02T13:28:05;1.38;;;1.20;;
57856;SDS011;43683;48.650;9.290;2024-03-02T13:30:31;2.37;;;1.10;;
57856;SDS011;43683;48.650;9.290;2024-03-02T13:32:57;1.48;;;0.95;;
57856;SDS011;43683;48.650;9.290;2024-03-02T13:35:23;2.33;;;0.95;;
57856;SDS011;43683;48.650;9.290;2024-03-02T13:37:48;2.35;;;1.20;;
57856;SDS011;43683;48.650;9.290;2024-03-02T13:40:15;1.20;;;0.88;;
57856;SDS011;43683;48.650;9.290;2024-03-02T13:42:45;1.42;;;0.90;;
57856;SDS011;43683;48.650;9.290;2024-03-02T13:45:11;1.52;;;1.10;;
57856;SDS011;43683;48.650;9.290;2024-03-02T13:47:38;1.85;;;0.90;;
57856;SDS011;43683;48.650;9.290;2024-03-02T13:50:03;1.73;;;0.80;;
57856;SDS011;43683;48.650;9.290;2024-03-02T13:52:30;1.85;;;0.88;;
57856;SDS011;43683;48.650;9.290;2024-03-02T13:54:55;1.30;;;0.90;;
57856;SDS011;43683;48.650;9.290;2024-03-02T13:57:21;1.30;;;0.73;;
57856;SDS011;43683;48.650;9.290;2024-03-02T13:59:48;2.47;;;1.00;;
57856;SDS011;43683;48.650;9.290;2024-03-02T14:02:14;1.33;;;0.90;;
57856;SDS011;43683;48.650;9.290;2024-03-02T14:04:40;1.80;;;0.93;;
57856;SDS011;43683;48.650;9.290;2024-03-02T14:07:05;1.30;;;0.85;;
57856;SDS011;43683;48.650;9.290;2024-03-02T14:09:35;1.95;;;1.00;;
57856;SDS011;43683;48.650;9.290;2024-03-02T14:12:01;2.22;;;1.15;;
57856;SDS011;43683;48.650;9.290;2024-03-02T14:14:27;1.42;;;1.02;;
57856;SDS011;43683;48.650;9.290;2024-03-02T14:16:54;1.42;;;1.08;;
57856;SDS011;43683;48.650;9.290;2024-03-02T14:19:20;0.60;;;0.60;;
57856;SDS011;43683;48.650;9.290;2024-03-02T14:21:46;1.65;;;0.73;;
57856;SDS011;43683;48.650;9.290;2024-03-02T14:24:12;1.17;;;0.90;;
57856;SDS011;43683;48.650;9.290;2024-03-02T14:26:38;1.52;;;0.60;;
57856;SDS011;43683;48.650;9.290;2024-03-02T14:29:04;1.45;;;0.70;;
57856;SDS011;43683;48.650;9.290;2024-03-02T14:31:31;1.08;;;0.70;;
57856;SDS011;43683;48.650;9.290;2024-03-02T14:33:57;1.10;;;0.70;;
57856;SDS011;43683;48.650;9.290;2024-03-02T14:36:23;1.33;;;0.70;;
57856;SDS011;43683;48.650;9.290;2024-03-02T14:38:49;1.48;;;0.90;;
57856;SDS011;43683;48.650;9.290;2024-03-02T14:41:16;0.95;;;0.80;;
57856;SDS011;43683;48.650;9.290;2024-03-02T14:43:42;6.03;;;1.20;;
57856;SDS011;43683;48.650;9.290;2024-03-02T14:46:07;1.70;;;1.02;;
57856;SDS011;43683;48.650;9.290;2024-03-02T14:48:33;1.33;;;0.70;;
57856;SDS011;43683;48.650;9.290;2024-03-02T14:51:00;1.60;;;0.90;;